createdAt,value
2017-12-13T00:00:50.017Z,101113.56
2017-12-13T00:03:18.350Z,101117.09
2017-12-13T00:05:46.699Z,101121.59
2017-12-13T00:08:15.020Z,101115.56
2017-12-13T00:10:43.328Z,101113.91
2017-12-13T00:13:11.622Z,101113.20
2017-12-13T00:15:39.922Z,101102.27
2017-12-13T00:18:08.999Z,101097.68
2017-12-13T00:20:37.300Z,101089.47
2017-12-13T00:23:05.611Z,101079.08
2017-12-13T00:25:33.912Z,101084.76
2017-12-13T00:28:03.050Z,101066.41
2017-12-13T00:30:31.362Z,101065.38
2017-12-13T00:32:59.668Z,101060.01
2017-12-13T00:35:27.994Z,101063.89
2017-12-13T00:37:56.303Z,101060.98
2017-12-13T00:40:24.613Z,101055.23
2017-12-13T00:42:52.929Z,101049.77
2017-12-13T00:45:21.225Z,101045.34
2017-12-13T00:47:50.310Z,101043.45
2017-12-13T00:50:18.614Z,101046.37
2017-12-13T00:52:47.700Z,101037.69
2017-12-13T00:55:16.813Z,101037.17
2017-12-13T00:57:46.065Z,101029.20
2017-12-13T01:00:15.218Z,101020.50
2017-12-13T01:02:44.310Z,101028.98
2017-12-13T01:05:13.394Z,101017.28
2017-12-13T01:07:41.736Z,101026.08
2017-12-13T01:10:10.042Z,101019.19
2017-12-13T01:12:38.348Z,101007.95
2017-12-13T01:15:06.670Z,101002.96
2017-12-13T01:17:34.974Z,101010.09
2017-12-13T01:20:03.327Z,101008.30
2017-12-13T01:22:31.640Z,100996.17
2017-12-13T01:25:00.016Z,100998.39
2017-12-13T01:27:28.307Z,101003.86
2017-12-13T01:29:56.669Z,100998.59
2017-12-13T01:32:24.980Z,100986.94
2017-12-13T01:34:53.288Z,100982.09
2017-12-13T01:37:22.378Z,100972.03
2017-12-13T01:39:50.712Z,100972.17
2017-12-13T01:42:19.035Z,100970.86
2017-12-13T01:44:47.356Z,100973.94
2017-12-13T01:47:15.668Z,100970.67
2017-12-13T01:49:43.971Z,100967.62
2017-12-13T01:52:12.933Z,100963.03
2017-12-13T01:54:41.288Z,100962.06
2017-12-13T01:57:10.355Z,100947.64
2017-12-13T01:59:38.678Z,100937.52
2017-12-13T02:02:06.985Z,100933.91
2017-12-13T02:04:35.317Z,100932.83
2017-12-13T02:07:04.387Z,100932.33
2017-12-13T02:09:33.457Z,100924.34
2017-12-13T02:12:01.786Z,100924.50
2017-12-13T02:14:30.106Z,100919.84
2017-12-13T02:16:58.426Z,100913.95
2017-12-13T02:19:26.725Z,100904.42
2017-12-13T02:21:55.054Z,100913.70
2017-12-13T02:24:23.381Z,100886.68
2017-12-13T02:26:51.706Z,100882.77
2017-12-13T02:29:20.796Z,100872.06
2017-12-13T02:31:49.924Z,100878.81
2017-12-13T02:34:18.225Z,100871.85
2017-12-13T02:36:46.556Z,100871.89
2017-12-13T02:39:15.732Z,100865.50
2017-12-13T02:41:44.057Z,100849.00
2017-12-13T02:44:12.377Z,100861.06
2017-12-13T02:46:40.701Z,100859.52
2017-12-13T02:49:09.814Z,100854.52
2017-12-13T02:51:38.919Z,100846.80
2017-12-13T02:54:07.247Z,100845.14
2017-12-13T02:56:36.337Z,100842.50
2017-12-13T02:59:04.651Z,100829.01
2017-12-13T03:01:33.061Z,100832.37
2017-12-13T03:04:02.145Z,100827.63
2017-12-13T03:06:31.212Z,100806.63
2017-12-13T03:08:59.537Z,100799.89
2017-12-13T03:11:27.863Z,100793.30
2017-12-13T03:13:56.174Z,100789.41
2017-12-13T03:16:24.539Z,100783.91
2017-12-13T03:18:52.857Z,100776.26
2017-12-13T03:21:21.979Z,100768.65
2017-12-13T03:23:50.286Z,100764.54
2017-12-13T03:26:18.594Z,100773.36
2017-12-13T03:28:46.907Z,100764.20
2017-12-13T03:31:15.982Z,100753.01
2017-12-13T03:33:44.311Z,100751.42
2017-12-13T03:36:12.625Z,100754.63
2017-12-13T03:38:40.933Z,100737.25
2017-12-13T03:41:09.261Z,100732.95
2017-12-13T03:43:37.609Z,100722.17
2017-12-13T03:46:06.700Z,100716.59
2017-12-13T03:48:35.032Z,100709.35
2017-12-13T03:51:03.410Z,100700.30
2017-12-13T03:53:31.728Z,100715.22
2017-12-13T03:56:00.075Z,100713.17
2017-12-13T03:58:28.375Z,100701.90
2017-12-13T04:00:56.675Z,100705.11
2017-12-13T04:03:25.003Z,100701.33
2017-12-13T04:05:53.323Z,100700.09
2017-12-13T04:08:21.612Z,100689.12
2017-12-13T04:10:49.929Z,100682.27
2017-12-13T04:13:19.029Z,100663.61
2017-12-13T04:15:48.097Z,100644.14
2017-12-13T04:18:16.409Z,100640.19
2017-12-13T04:20:45.487Z,100625.91
2017-12-13T04:23:13.827Z,100637.94
2017-12-13T04:25:42.125Z,100642.56
2017-12-13T04:28:10.426Z,100636.64
2017-12-13T04:30:38.739Z,100637.21
2017-12-13T04:33:07.832Z,100636.30
2017-12-13T04:35:36.915Z,100628.55
2017-12-13T04:38:05.247Z,100608.50
2017-12-13T04:40:33.543Z,100599.11
2017-12-13T04:43:01.867Z,100573.97
2017-12-13T04:45:30.177Z,100586.00
2017-12-13T04:47:59.242Z,100579.82
2017-12-13T04:50:27.567Z,100578.75
2017-12-13T04:52:55.873Z,100580.56
2017-12-13T04:55:24.172Z,100579.92
2017-12-13T04:57:52.529Z,100577.05
2017-12-13T05:00:20.829Z,100575.72
2017-12-13T05:02:49.139Z,100583.94
2017-12-13T05:05:17.462Z,100573.50
2017-12-13T05:07:45.765Z,100576.85
2017-12-13T05:10:14.089Z,100575.04
2017-12-13T05:12:42.411Z,100572.58
2017-12-13T05:15:10.762Z,100570.19
2017-12-13T05:17:39.838Z,100563.77
2017-12-13T05:20:08.147Z,100582.42
2017-12-13T05:22:37.225Z,100562.22
2017-12-13T05:25:05.529Z,100544.30
2017-12-13T05:27:34.603Z,100548.02
2017-12-13T05:30:02.931Z,100541.34
2017-12-13T05:32:31.251Z,100533.19
2017-12-13T05:34:59.559Z,100517.27
2017-12-13T05:37:28.643Z,100507.13
2017-12-13T05:39:56.945Z,100481.30
2017-12-13T05:42:26.046Z,100500.77
2017-12-13T05:44:55.133Z,100503.07
2017-12-13T05:47:23.455Z,100502.33
2017-12-13T05:49:51.753Z,100492.10
2017-12-13T05:52:20.068Z,100494.25
2017-12-13T05:54:48.399Z,100491.45
2017-12-13T05:57:16.689Z,100480.40
2017-12-13T05:59:45.006Z,100475.61
2017-12-13T06:02:13.325Z,100468.84
2017-12-13T06:04:42.392Z,100454.49
2017-12-13T06:07:10.717Z,100445.34
2017-12-13T06:09:39.043Z,100435.63
2017-12-13T06:12:07.373Z,100435.70
2017-12-13T06:14:35.665Z,100438.50
2017-12-13T06:17:03.995Z,100437.27
2017-12-13T06:19:32.301Z,100421.35
2017-12-13T06:22:00.618Z,100414.10
2017-12-13T06:24:28.915Z,100415.26
2017-12-13T06:26:57.227Z,100424.49
2017-12-13T06:29:25.542Z,100413.28
2017-12-13T06:31:54.611Z,100412.79
2017-12-13T06:34:22.943Z,100397.70
2017-12-13T06:36:51.235Z,100393.91
2017-12-13T06:39:19.547Z,100378.23
2017-12-13T06:41:47.853Z,100376.66
2017-12-13T06:44:16.161Z,100366.94
2017-12-13T06:46:44.470Z,100356.63
2017-12-13T06:49:12.780Z,100349.45
2017-12-13T06:51:41.081Z,100339.73
2017-12-13T06:54:10.154Z,100320.77
2017-12-13T06:56:38.461Z,100322.33
2017-12-13T06:59:07.525Z,100302.13
2017-12-13T07:01:35.841Z,100303.28
2017-12-13T07:04:04.934Z,100297.59
2017-12-13T07:06:34.009Z,100285.72
2017-12-13T07:09:02.373Z,100275.17
2017-12-13T07:11:30.664Z,100272.77
2017-12-13T07:13:58.990Z,100280.61
2017-12-13T07:16:28.056Z,100274.91
2017-12-13T07:18:56.624Z,100269.85
2017-12-13T07:21:24.929Z,100266.01
2017-12-13T07:23:53.232Z,100257.19
2017-12-13T07:26:22.310Z,100264.41
2017-12-13T07:28:51.084Z,100257.56
2017-12-13T07:31:20.169Z,100259.86
2017-12-13T07:33:48.528Z,100262.17
2017-12-13T07:36:16.845Z,100251.13
2017-12-13T07:38:45.145Z,100233.56
2017-12-13T07:41:13.454Z,100239.09
2017-12-13T07:43:42.567Z,100235.45
2017-12-13T07:46:10.888Z,100236.11
2017-12-13T07:48:39.184Z,100241.39
2017-12-13T07:51:07.491Z,100226.96
2017-12-13T07:53:35.798Z,100212.94
2017-12-13T07:56:04.101Z,100220.77
2017-12-13T07:58:32.410Z,100227.20
2017-12-13T08:01:00.720Z,100209.97
2017-12-13T08:03:29.780Z,100203.44
2017-12-13T08:05:58.081Z,100203.89
2017-12-13T08:08:26.420Z,100193.99
2017-12-13T08:10:54.753Z,100187.70
2017-12-13T08:13:23.860Z,100186.13
2017-12-13T08:15:52.971Z,100183.13
2017-12-13T08:18:22.044Z,100173.71
2017-12-13T08:20:51.086Z,100167.03
2017-12-13T08:23:19.406Z,100169.00
2017-12-13T08:25:47.710Z,100163.38
2017-12-13T08:28:16.015Z,100157.42
2017-12-13T08:30:45.098Z,100156.97
2017-12-13T08:33:13.566Z,100150.52
2017-12-13T08:35:41.866Z,100136.66
2017-12-13T08:38:10.171Z,100137.90
2017-12-13T08:40:38.476Z,100132.12
2017-12-13T08:43:06.786Z,100117.77
2017-12-13T08:45:35.100Z,100111.41
2017-12-13T08:48:04.348Z,100104.89
2017-12-13T08:50:32.667Z,100108.78
2017-12-13T08:53:00.984Z,100104.95
2017-12-13T08:55:30.067Z,100091.77
2017-12-13T08:57:59.159Z,100097.87
2017-12-13T09:00:27.468Z,100092.25
2017-12-13T09:02:55.790Z,100091.25
2017-12-13T09:05:24.117Z,100086.21
2017-12-13T09:07:53.188Z,100081.08
2017-12-13T09:10:21.515Z,100076.83
2017-12-13T09:12:49.835Z,100077.65
2017-12-13T09:15:18.146Z,100069.55
2017-12-13T09:17:46.470Z,100074.16
2017-12-13T09:20:14.825Z,100069.78
2017-12-13T09:22:43.887Z,100056.73
2017-12-13T09:25:13.008Z,100058.20
2017-12-13T09:27:41.317Z,100051.20
2017-12-13T09:30:09.814Z,100042.34
2017-12-13T09:32:38.124Z,100042.91
2017-12-13T09:35:06.442Z,100038.03
2017-12-13T09:37:35.520Z,100037.59
2017-12-13T09:40:03.825Z,100031.39
2017-12-13T09:42:32.931Z,100025.28
2017-12-13T09:45:01.995Z,100012.19
2017-12-13T09:47:30.309Z,100015.80
2017-12-13T09:49:59.375Z,100000.67
2017-12-13T09:52:27.678Z,99997.36
2017-12-13T09:54:55.987Z,99993.77
2017-12-13T09:57:25.046Z,99995.00
2017-12-13T09:59:53.359Z,99981.58
2017-12-13T10:02:22.423Z,99982.12
2017-12-13T10:04:50.717Z,99965.82
2017-12-13T10:07:19.030Z,99962.73
2017-12-13T10:09:47.338Z,99960.19
2017-12-13T10:12:15.651Z,99956.45
2017-12-13T10:14:43.948Z,99955.69
2017-12-13T10:17:12.255Z,99946.02
2017-12-13T10:19:40.566Z,99943.70
2017-12-13T10:22:08.875Z,99937.91
2017-12-13T10:24:37.203Z,99925.52
2017-12-13T10:27:05.516Z,99922.41
2017-12-13T10:29:33.812Z,99923.56
2017-12-13T10:32:02.133Z,99920.69
2017-12-13T10:34:31.205Z,99922.33
2017-12-13T10:37:00.272Z,99905.34
2017-12-13T10:39:28.571Z,99890.20
2017-12-13T10:41:58.504Z,99892.43
2017-12-13T10:44:26.952Z,99881.45
2017-12-13T10:46:55.508Z,99885.73
2017-12-13T10:49:24.574Z,99871.02
2017-12-13T10:51:52.885Z,99864.36
2017-12-13T10:54:21.941Z,99867.50
2017-12-13T10:56:50.252Z,99852.36
2017-12-13T10:59:19.335Z,99845.70
2017-12-13T11:01:47.629Z,99841.56
2017-12-13T11:04:16.784Z,99839.91
2017-12-13T11:06:45.149Z,99836.52
2017-12-13T11:09:13.462Z,99830.35
2017-12-13T11:11:41.760Z,99823.42
2017-12-13T11:14:10.074Z,99823.83
2017-12-13T11:16:39.166Z,99817.85
2017-12-13T11:19:08.232Z,99813.48
2017-12-13T11:21:36.547Z,99805.67
2017-12-13T11:24:05.665Z,99806.58
2017-12-13T11:26:33.958Z,99805.95
2017-12-13T11:29:02.651Z,99793.36
2017-12-13T11:31:30.977Z,99786.37
2017-12-13T11:33:59.269Z,99788.41
2017-12-13T11:36:27.580Z,99784.57
2017-12-13T11:38:55.924Z,99772.66
2017-12-13T11:41:24.238Z,99763.50
2017-12-13T11:43:53.308Z,99761.67
2017-12-13T11:46:21.609Z,99766.77
2017-12-13T11:48:50.684Z,99754.27
2017-12-13T11:51:19.006Z,99750.95
2017-12-13T11:53:47.336Z,99742.61
2017-12-13T11:56:15.645Z,99735.39
2017-12-13T11:58:44.734Z,99733.70
2017-12-13T12:01:13.032Z,99736.76
2017-12-13T12:03:42.086Z,99731.16
2017-12-13T12:06:11.232Z,99728.25
2017-12-13T12:08:40.302Z,99732.53
2017-12-13T12:11:08.626Z,99725.31
2017-12-13T12:13:37.421Z,99721.41
2017-12-13T12:16:05.733Z,99716.80
2017-12-13T12:18:34.285Z,99716.30
2017-12-13T12:21:03.404Z,99716.10
2017-12-13T12:23:32.456Z,99711.15
2017-12-13T12:26:00.765Z,99696.83
2017-12-13T12:28:29.830Z,99697.16
2017-12-13T12:30:58.122Z,99695.34
2017-12-13T12:33:26.448Z,99690.61
2017-12-13T12:35:54.744Z,99688.58
2017-12-13T12:38:23.042Z,99685.05
2017-12-13T12:40:51.372Z,99680.91
2017-12-13T12:43:20.444Z,99678.05
2017-12-13T12:45:48.750Z,99668.89
2017-12-13T12:48:17.814Z,99670.94
2017-12-13T12:50:46.118Z,99668.39
2017-12-13T12:53:15.205Z,99670.03
2017-12-13T12:55:43.522Z,99671.75
2017-12-13T12:58:11.842Z,99672.90
2017-12-13T13:00:40.140Z,99678.72
2017-12-13T13:03:08.446Z,99678.42
2017-12-13T13:05:37.502Z,99676.98
2017-12-13T13:08:05.795Z,99665.17
2017-12-13T13:10:34.112Z,99667.08
2017-12-13T13:13:03.234Z,99660.05
2017-12-13T13:15:31.518Z,99656.48
2017-12-13T13:17:59.805Z,99641.69
2017-12-13T13:20:28.439Z,99643.32
2017-12-13T13:22:56.723Z,99649.55
2017-12-13T13:25:25.064Z,99649.95
2017-12-13T13:27:53.375Z,99655.67
2017-12-13T13:30:21.696Z,99654.55
2017-12-13T13:32:50.857Z,99641.89
2017-12-13T13:35:19.106Z,99649.14
2017-12-13T13:37:47.409Z,99643.22
2017-12-13T13:40:15.779Z,99643.22
2017-12-13T13:42:44.089Z,99639.24
2017-12-13T13:45:12.457Z,99625.95
2017-12-13T13:47:40.805Z,99616.77
2017-12-13T13:50:09.099Z,99611.67
2017-12-13T13:52:37.407Z,99610.55
2017-12-13T13:55:05.724Z,99596.78
2017-12-13T13:57:35.535Z,99602.90
2017-12-13T14:00:04.584Z,99603.30
2017-12-13T14:02:32.873Z,99608.20
2017-12-13T14:05:01.212Z,99611.03
2017-12-13T14:07:29.562Z,99610.11
2017-12-13T14:09:57.874Z,99592.86
2017-12-13T14:12:26.922Z,99601.19
2017-12-13T14:14:55.216Z,99596.39
2017-12-13T14:17:23.512Z,99586.80
2017-12-13T14:19:51.819Z,99585.37
2017-12-13T14:22:20.112Z,99589.24
2017-12-13T14:24:48.420Z,99583.84
2017-12-13T14:27:16.745Z,99573.84
2017-12-13T14:29:45.833Z,99572.41
2017-12-13T14:32:14.919Z,99560.38
2017-12-13T14:34:43.246Z,99554.45
2017-12-13T14:37:11.545Z,99544.80
2017-12-13T14:39:39.867Z,99541.22
2017-12-13T14:42:08.169Z,99536.73
2017-12-13T14:44:37.301Z,99543.98
2017-12-13T14:47:05.687Z,99545.11
2017-12-13T14:49:33.993Z,99541.84
2017-12-13T14:52:02.323Z,99533.38
2017-12-13T14:54:31.377Z,99529.61
2017-12-13T14:56:59.679Z,99512.87
2017-12-13T14:59:27.978Z,99516.69
2017-12-13T15:01:57.062Z,99513.43
2017-12-13T15:04:25.365Z,99508.03
2017-12-13T15:06:54.449Z,99503.48
2017-12-13T15:09:22.755Z,99495.73
2017-12-13T15:11:51.811Z,99486.25
2017-12-13T15:14:20.108Z,99487.67
2017-12-13T15:16:48.430Z,99470.27
2017-12-13T15:19:16.720Z,99462.01
2017-12-13T15:21:45.633Z,99458.23
2017-12-13T15:24:13.960Z,99444.27
2017-12-13T15:26:43.096Z,99446.20
2017-12-13T15:29:11.395Z,99439.48
2017-12-13T15:31:39.695Z,99438.09
2017-12-13T15:34:07.997Z,99435.04
2017-12-13T15:36:36.293Z,99430.77
2017-12-13T15:39:05.347Z,99426.92
2017-12-13T15:41:33.641Z,99432.23
2017-12-13T15:44:01.963Z,99421.39
2017-12-13T15:46:31.043Z,99412.75
2017-12-13T15:48:59.364Z,99415.98
2017-12-13T15:51:27.681Z,99412.11
2017-12-13T15:53:56.009Z,99389.38
2017-12-13T15:56:24.303Z,99390.29
2017-12-13T15:58:52.616Z,99384.27
2017-12-13T16:01:20.921Z,99372.14
2017-12-13T16:03:49.237Z,99361.37
2017-12-13T16:06:17.530Z,99357.00
2017-12-13T16:08:45.835Z,99343.86
2017-12-13T16:11:14.138Z,99346.62
2017-12-13T16:13:42.442Z,99334.28
2017-12-13T16:16:11.557Z,99327.66
2017-12-13T16:18:39.872Z,99317.16
2017-12-13T16:21:08.175Z,99303.00
2017-12-13T16:23:36.492Z,99297.19
2017-12-13T16:26:05.600Z,99292.30
2017-12-13T16:28:35.315Z,99283.22
2017-12-13T16:31:04.431Z,99279.65
2017-12-13T16:33:32.739Z,99267.52
2017-12-13T16:36:01.068Z,99262.52
2017-12-13T16:38:30.124Z,99260.48
2017-12-13T16:40:58.443Z,99257.84
2017-12-13T16:43:28.192Z,99252.03
2017-12-13T16:45:56.914Z,99245.62
2017-12-13T16:48:28.283Z,99227.72
2017-12-13T16:50:58.218Z,99222.84
2017-12-13T16:53:30.843Z,99212.04
2017-12-13T16:55:59.764Z,99205.12
2017-12-13T16:58:29.795Z,99203.41
2017-12-13T17:00:58.919Z,99183.88
2017-12-13T17:03:29.155Z,99169.93
2017-12-13T17:05:59.124Z,99171.66
2017-12-13T17:08:28.783Z,99160.05
2017-12-13T17:10:57.953Z,99160.87
2017-12-13T17:13:27.481Z,99139.67
2017-12-13T17:15:58.635Z,99130.91
2017-12-13T17:18:31.933Z,99126.43
2017-12-13T17:21:01.710Z,99109.31
2017-12-13T17:23:31.864Z,99098.72
2017-12-13T17:26:01.684Z,99088.53
2017-12-13T17:28:32.741Z,99071.52
2017-12-13T17:31:02.494Z,99062.66
2017-12-13T17:33:31.539Z,99039.84
2017-12-13T17:36:04.311Z,99034.55
2017-12-13T17:38:41.772Z,99023.84
2017-12-13T17:41:12.482Z,99011.20
2017-12-13T17:43:41.753Z,99001.12
2017-12-13T17:48:57.148Z,98973.00
2017-12-13T17:51:26.849Z,98966.17
2017-12-13T17:53:55.373Z,98961.77
2017-12-13T17:56:24.609Z,98957.58
2017-12-13T17:58:54.110Z,98953.25
2017-12-13T18:01:22.635Z,98933.05
2017-12-13T18:03:51.079Z,98918.67
2017-12-13T18:06:20.533Z,98898.07
2017-12-13T18:08:48.910Z,98891.05
2017-12-13T18:11:18.041Z,98880.23
2017-12-13T18:13:46.408Z,98872.06
2017-12-13T18:16:17.583Z,98869.30
2017-12-13T18:18:49.951Z,98868.02
2017-12-13T18:21:18.981Z,98851.80
2017-12-13T18:23:47.296Z,98846.06
2017-12-13T18:26:16.409Z,98837.56
2017-12-13T18:28:49.918Z,98823.17
2017-12-13T18:31:23.892Z,98815.56
2017-12-13T18:33:53.250Z,98817.14
2017-12-13T18:36:21.539Z,98805.51
2017-12-13T18:38:52.423Z,98783.97
2017-12-13T18:41:24.480Z,98778.16
2017-12-13T18:43:57.570Z,98775.69
2017-12-13T18:46:26.457Z,98768.14
2017-12-13T18:48:55.818Z,98747.86
2017-12-13T18:51:26.401Z,98733.91
2017-12-13T18:53:56.011Z,98729.01
2017-12-13T18:56:26.226Z,98711.92
2017-12-13T18:58:57.478Z,98709.34
2017-12-13T19:01:25.973Z,98690.56
2017-12-13T19:03:54.304Z,98674.95
2017-12-13T19:06:22.597Z,98671.56
2017-12-13T19:08:50.955Z,98669.38
2017-12-13T19:11:20.065Z,98657.38
2017-12-13T19:13:48.380Z,98664.92
2017-12-13T19:16:16.699Z,98672.88
2017-12-13T19:18:45.790Z,98671.73
2017-12-13T19:21:14.100Z,98680.16
2017-12-13T19:23:43.164Z,98689.50
2017-12-13T19:26:11.471Z,98769.96
2017-12-13T19:28:40.526Z,98735.77
2017-12-13T19:31:08.850Z,98705.05
2017-12-13T19:33:37.154Z,98663.17
2017-12-13T19:36:05.471Z,98653.61
2017-12-13T19:38:33.906Z,98654.40
2017-12-13T19:41:02.973Z,98655.14
2017-12-13T19:43:32.071Z,98656.13
2017-12-13T19:46:00.400Z,98615.77
2017-12-13T19:48:28.806Z,98618.93
2017-12-13T19:50:57.787Z,98635.75
2017-12-13T19:53:26.092Z,98633.80
2017-12-13T19:55:54.380Z,98620.29
2017-12-13T19:58:22.706Z,98609.69
2017-12-13T20:00:51.767Z,98610.50
2017-12-13T20:03:20.080Z,98601.06
2017-12-13T20:05:49.141Z,98592.31
2017-12-13T20:08:17.444Z,98606.66
2017-12-13T20:10:45.755Z,98607.64
2017-12-13T20:13:14.074Z,98622.17
2017-12-13T20:15:42.371Z,98618.36
2017-12-13T20:18:10.683Z,98624.25
2017-12-13T20:20:39.737Z,98638.59
2017-12-13T20:23:08.061Z,98648.20
2017-12-13T20:25:37.146Z,98646.42
2017-12-13T20:28:05.440Z,98666.26
2017-12-13T20:30:34.550Z,98671.80
2017-12-13T20:33:03.932Z,98678.17
2017-12-13T20:35:32.251Z,98686.83
2017-12-13T20:38:00.538Z,98673.34
2017-12-13T20:40:28.832Z,98666.53
2017-12-13T20:42:57.128Z,98683.95
2017-12-13T20:45:26.189Z,98684.47
2017-12-13T20:47:54.512Z,98691.28
2017-12-13T20:50:23.621Z,98694.55
2017-12-13T20:52:51.950Z,98690.84
2017-12-13T20:55:21.039Z,98690.57
2017-12-13T20:57:50.154Z,98696.02
2017-12-13T21:00:18.460Z,98688.59
2017-12-13T21:02:46.740Z,98697.23
2017-12-13T21:05:15.033Z,98698.92
2017-12-13T21:07:43.315Z,98695.66
2017-12-13T21:10:11.685Z,98696.05
2017-12-13T21:12:39.991Z,98702.61
2017-12-13T21:15:08.294Z,98694.11
2017-12-13T21:17:36.643Z,98694.95
2017-12-13T21:20:05.116Z,98701.36
2017-12-13T21:22:33.423Z,98688.63
2017-12-13T21:25:02.465Z,98700.00
2017-12-13T21:27:31.680Z,98707.31
2017-12-13T21:29:59.991Z,98687.56
2017-12-13T21:32:28.301Z,98689.98
2017-12-13T21:34:56.604Z,98691.75
2017-12-13T21:37:25.661Z,98697.45
2017-12-13T21:39:53.965Z,98707.97
2017-12-13T21:42:22.260Z,98714.44
2017-12-13T21:44:51.358Z,98727.89
2017-12-13T21:47:20.436Z,98727.55
2017-12-13T21:49:48.749Z,98732.47
2017-12-13T21:52:17.806Z,98742.98
2017-12-13T21:54:46.113Z,98748.47
2017-12-13T21:57:14.395Z,98759.70
2017-12-13T21:59:42.692Z,98764.41
2017-12-13T22:02:11.751Z,98796.73
2017-12-13T22:04:40.820Z,98795.30
2017-12-13T22:07:09.131Z,98790.57
2017-12-13T22:09:37.420Z,98802.34
2017-12-13T22:12:05.712Z,98816.69
2017-12-13T22:14:34.023Z,98817.91
2017-12-13T22:17:02.313Z,98818.52
2017-12-13T22:19:30.613Z,98839.31
2017-12-13T22:21:58.925Z,98840.69
2017-12-13T22:24:27.228Z,98848.79
2017-12-13T22:26:56.294Z,98856.06
2017-12-13T22:29:24.587Z,98857.91
2017-12-13T22:31:52.899Z,98852.86
2017-12-13T22:34:21.969Z,98859.80
2017-12-13T22:36:50.273Z,98859.45
2017-12-13T22:39:19.341Z,98867.95
2017-12-13T22:41:47.636Z,98863.85
2017-12-13T22:44:15.948Z,98866.14
2017-12-13T22:46:44.257Z,98866.88
2017-12-13T22:49:12.543Z,98877.09
2017-12-13T22:51:40.843Z,98885.14
2017-12-13T22:54:09.679Z,98871.80
2017-12-13T22:56:38.784Z,98876.69
2017-12-13T22:59:07.433Z,98881.58
2017-12-13T23:01:35.785Z,98891.25
2017-12-13T23:04:05.232Z,98880.16
2017-12-13T23:06:34.565Z,98877.33
2017-12-13T23:09:03.691Z,98881.78
2017-12-13T23:11:39.327Z,98870.98
2017-12-13T23:14:07.927Z,98877.90
2017-12-13T23:16:36.230Z,98866.13
2017-12-13T23:19:04.532Z,98864.77
2017-12-13T23:21:32.930Z,98853.70
2017-12-13T23:24:01.218Z,98850.21
2017-12-13T23:26:30.297Z,98842.83
2017-12-13T23:28:58.662Z,98849.30
2017-12-13T23:31:26.950Z,98839.22
2017-12-13T23:33:55.259Z,98840.67
2017-12-13T23:36:23.556Z,98837.00
2017-12-13T23:38:52.630Z,98839.64
2017-12-13T23:41:20.918Z,98848.72
2017-12-13T23:43:50.176Z,98841.41
2017-12-13T23:46:18.469Z,98831.14
2017-12-13T23:48:46.762Z,98835.73
2017-12-13T23:51:15.068Z,98838.70
2017-12-13T23:53:43.373Z,98832.63
2017-12-13T23:56:11.730Z,98834.62
2017-12-13T23:58:40.037Z,98825.14
